Pequizeiro, Brazil
Current Conditions -  °F | °C
As of 12:00 PM on Friday 24 Oct 2014 (Local Time) from SBPJ Reporting Station
Scattered Clouds Scattered Clouds  
Wind Chill: 84°   Ceiling: Unl
Heat Index: 87°   Visibility: 6mi
Dew Point: 68°   Wind: 9mph
Humidity: 58%   Direction: 200°SSW
Pressure: 29.94"   Gusts: NA
Location:  8.54°S, 48.97°W
Report Text: SBPJ 241500Z 20008KT 9999 SCT025 29/20 Q1014
Loading
Personal Weather Stations






























Interactive Weather Map New forecast layout! Learn more

10-Day Weather Forecast

Advertisements
Track Severe Weather on mobile